sensor_id;sensor_type;location;lat;lon;timestamp;pressure;altitude;pressure_sealevel;temperature;humidity
12785;BME280;6456;42.680;23.260;2023-02-19T00:00:59;94941.16;;;8.08;67.81
12785;BME280;6456;42.680;23.260;2023-02-19T00:03:38;94885.50;;;7.79;67.18
12785;BME280;6456;42.680;23.260;2023-02-19T00:06:10;94934.13;;;8.09;67.23
12785;BME280;6456;42.680;23.260;2023-02-19T00:08:37;94941.75;;;8.04;67.47
12785;BME280;6456;42.680;23.260;2023-02-19T00:11:06;94896.06;;;7.92;67.49
12785;BME280;6456;42.680;23.260;2023-02-19T00:13:34;94911.66;;;8.00;67.21
12785;BME280;6456;42.680;23.260;2023-02-19T00:16:05;94922.63;;;8.10;67.52
12785;BME280;6456;42.680;23.260;2023-02-19T00:18:33;94912.91;;;8.04;67.49
12785;BME280;6456;42.680;23.260;2023-02-19T00:21:00;94923.44;;;8.10;67.48
12785;BME280;6456;42.680;23.260;2023-02-19T00:23:27;94900.53;;;7.91;67.76
12785;BME280;6456;42.680;23.260;2023-02-19T00:25:54;94908.63;;;7.96;68.11
12785;BME280;6456;42.680;23.260;2023-02-19T00:28:22;94896.31;;;7.97;68.26
12785;BME280;6456;42.680;23.260;2023-02-19T00:30:48;94869.03;;;7.63;68.79
12785;BME280;6456;42.680;23.260;2023-02-19T00:33:15;94887.78;;;7.67;69.05
12785;BME280;6456;42.680;23.260;2023-02-19T00:35:44;94888.13;;;7.79;69.37
12785;BME280;6456;42.680;23.260;2023-02-19T00:38:10;94905.50;;;7.86;69.54
12785;BME280;6456;42.680;23.260;2023-02-19T00:40:37;94897.72;;;7.71;69.33
12785;BME280;6456;42.680;23.260;2023-02-19T00:43:04;94868.66;;;7.45;70.04
12785;BME280;6456;42.680;23.260;2023-02-19T00:45:31;94874.53;;;7.47;70.34
12785;BME280;6456;42.680;23.260;2023-02-19T00:47:59;94871.41;;;7.58;70.33
12785;BME280;6456;42.680;23.260;2023-02-19T00:50:26;94891.75;;;7.56;70.25
12785;BME280;6456;42.680;23.260;2023-02-19T00:52:54;94877.22;;;7.54;70.70
12785;BME280;6456;42.680;23.260;2023-02-19T00:55:21;94842.38;;;7.32;70.99
12785;BME280;6456;42.680;23.260;2023-02-19T00:57:48;94877.59;;;7.51;71.50
12785;BME280;6456;42.680;23.260;2023-02-19T01:00:14;94852.09;;;7.38;71.73
12785;BME280;6456;42.680;23.260;2023-02-19T01:02:41;94861.38;;;7.41;71.82
12785;BME280;6456;42.680;23.260;2023-02-19T01:05:08;94874.28;;;7.42;71.91
12785;BME280;6456;42.680;23.260;2023-02-19T01:07:35;94841.59;;;7.17;72.57
12785;BME280;6456;42.680;23.260;2023-02-19T01:10:04;94863.97;;;7.20;72.74
12785;BME280;6456;42.680;23.260;2023-02-19T01:12:31;94858.16;;;7.03;73.21
12785;BME280;6456;42.680;23.260;2023-02-19T01:14:58;94852.13;;;7.02;73.84
12785;BME280;6456;42.680;23.260;2023-02-19T01:17:25;94850.44;;;6.95;73.75
12785;BME280;6456;42.680;23.260;2023-02-19T01:19:52;94846.69;;;7.04;73.96
12785;BME280;6456;42.680;23.260;2023-02-19T01:22:18;94860.97;;;7.01;73.60
12785;BME280;6456;42.680;23.260;2023-02-19T01:24:45;94861.41;;;7.05;73.01
12785;BME280;6456;42.680;23.260;2023-02-19T01:27:13;94860.28;;;7.14;72.69
12785;BME280;6456;42.680;23.260;2023-02-19T01:29:41;94873.25;;;7.22;72.64
12785;BME280;6456;42.680;23.260;2023-02-19T01:32:08;94869.22;;;7.20;72.11
12785;BME280;6456;42.680;23.260;2023-02-19T01:34:35;94900.31;;;7.29;71.53
12785;BME280;6456;42.680;23.260;2023-02-19T01:37:01;94906.72;;;7.41;71.18
12785;BME280;6456;42.680;23.260;2023-02-19T01:39:29;94874.13;;;7.29;70.99
12785;BME280;6456;42.680;23.260;2023-02-19T01:41:55;94894.50;;;7.48;70.58
12785;BME280;6456;42.680;23.260;2023-02-19T01:47:28;94916.91;;;7.57;70.15
12785;BME280;6456;42.680;23.260;2023-02-19T01:49:56;94918.31;;;7.53;70.17
12785;BME280;6456;42.680;23.260;2023-02-19T01:52:26;94925.44;;;7.45;70.27
12785;BME280;6456;42.680;23.260;2023-02-19T01:54:55;94892.59;;;7.42;70.12
12785;BME280;6456;42.680;23.260;2023-02-19T01:57:25;94932.88;;;7.62;70.17
12785;BME280;6456;42.680;23.260;2023-02-19T01:59:55;94905.09;;;7.61;69.97
12785;BME280;6456;42.680;23.260;2023-02-19T02:02:23;94910.94;;;7.63;70.16
12785;BME280;6456;42.680;23.260;2023-02-19T02:04:53;94879.00;;;7.32;70.51
12785;BME280;6456;42.680;23.260;2023-02-19T02:07:20;94896.81;;;7.22;71.19
12785;BME280;6456;42.680;23.260;2023-02-19T02:10:05;94897.44;;;7.24;71.48
12785;BME280;6456;42.680;23.260;2023-02-19T02:12:48;94915.13;;;7.22;71.84
12785;BME280;6456;42.680;23.260;2023-02-19T02:15:17;94906.88;;;7.04;72.79
12785;BME280;6456;42.680;23.260;2023-02-19T02:17:50;94903.63;;;7.02;72.75
12785;BME280;6456;42.680;23.260;2023-02-19T02:20:33;94880.59;;;6.91;72.92
12785;BME280;6456;42.680;23.260;2023-02-19T02:23:08;94887.06;;;6.95;72.75
12785;BME280;6456;42.680;23.260;2023-02-19T02:26:00;94912.03;;;6.97;73.26
12785;BME280;6456;42.680;23.260;2023-02-19T02:28:52;94895.72;;;6.95;72.95
12785;BME280;6456;42.680;23.260;2023-02-19T02:31:27;94909.63;;;6.96;73.03
12785;BME280;6456;42.680;23.260;2023-02-19T02:34:00;94922.97;;;7.01;72.55
12785;BME280;6456;42.680;23.260;2023-02-19T02:36:32;94927.28;;;6.94;72.71
12785;BME280;6456;42.680;23.260;2023-02-19T02:39:01;94914.84;;;6.96;72.63
12785;BME280;6456;42.680;23.260;2023-02-19T02:41:31;94933.16;;;6.96;72.63
12785;BME280;6456;42.680;23.260;2023-02-19T02:43:58;94923.22;;;6.91;72.96
12785;BME280;6456;42.680;23.260;2023-02-19T02:46:29;94926.75;;;6.98;72.71
12785;BME280;6456;42.680;23.260;2023-02-19T02:49:03;94934.75;;;7.11;72.40
12785;BME280;6456;42.680;23.260;2023-02-19T02:51:32;94936.84;;;7.01;72.90
12785;BME280;6456;42.680;23.260;2023-02-19T02:54:05;94936.03;;;7.01;72.49
12785;BME280;6456;42.680;23.260;2023-02-19T02:56:51;94906.84;;;6.83;72.52
12785;BME280;6456;42.680;23.260;2023-02-19T02:59:21;94909.53;;;6.89;72.64
12785;BME280;6456;42.680;23.260;2023-02-19T03:01:53;94912.50;;;7.01;72.67
12785;BME280;6456;42.680;23.260;2023-02-19T03:04:44;94929.91;;;7.08;72.27
12785;BME280;6456;42.680;23.260;2023-02-19T03:07:36;94933.50;;;7.07;72.24
12785;BME280;6456;42.680;23.260;2023-02-19T03:10:07;94933.31;;;7.09;71.92
12785;BME280;6456;42.680;23.260;2023-02-19T03:12:39;94931.97;;;7.13;71.90
12785;BME280;6456;42.680;23.260;2023-02-19T03:15:26;94942.72;;;7.03;72.26
12785;BME280;6456;42.680;23.260;2023-02-19T03:18:13;94926.38;;;7.01;72.56
12785;BME280;6456;42.680;23.260;2023-02-19T03:21:00;94930.53;;;6.96;72.52
12785;BME280;6456;42.680;23.260;2023-02-19T03:23:32;94929.81;;;7.02;72.23
12785;BME280;6456;42.680;23.260;2023-02-19T03:26:18;94924.31;;;6.97;72.06
12785;BME280;6456;42.680;23.260;2023-02-19T03:28:49;94949.91;;;7.16;71.81
12785;BME280;6456;42.680;23.260;2023-02-19T03:31:37;94949.00;;;7.09;72.00
12785;BME280;6456;42.680;23.260;2023-02-19T03:34:11;94956.13;;;7.15;71.44
12785;BME280;6456;42.680;23.260;2023-02-19T03:36:43;94954.69;;;7.13;70.69
12785;BME280;6456;42.680;23.260;2023-02-19T03:39:13;94967.75;;;7.27;69.92
12785;BME280;6456;42.680;23.260;2023-02-19T03:41:46;94961.78;;;7.33;69.14
12785;BME280;6456;42.680;23.260;2023-02-19T03:44:18;94943.47;;;7.33;67.90
12785;BME280;6456;42.680;23.260;2023-02-19T03:46:53;94921.66;;;7.47;66.31
12785;BME280;6456;42.680;23.260;2023-02-19T03:49:25;94937.25;;;7.55;66.45
12785;BME280;6456;42.680;23.260;2023-02-19T03:52:00;94937.38;;;7.68;66.09
12785;BME280;6456;42.680;23.260;2023-02-19T03:54:33;94957.97;;;7.71;65.71
12785;BME280;6456;42.680;23.260;2023-02-19T03:57:03;94973.69;;;7.93;65.71
12785;BME280;6456;42.680;23.260;2023-02-19T03:59:38;94979.28;;;7.90;64.75
12785;BME280;6456;42.680;23.260;2023-02-19T04:02:10;94960.19;;;7.74;65.12
12785;BME280;6456;42.680;23.260;2023-02-19T04:04:43;94982.28;;;7.87;64.99
12785;BME280;6456;42.680;23.260;2023-02-19T04:07:11;94989.50;;;7.85;64.84
12785;BME280;6456;42.680;23.260;2023-02-19T04:09:42;94988.91;;;7.83;65.04
12785;BME280;6456;42.680;23.260;2023-02-19T04:12:11;94983.03;;;7.81;64.91
12785;BME280;6456;42.680;23.260;2023-02-19T04:14:42;94989.97;;;7.88;64.76
12785;BME280;6456;42.680;23.260;2023-02-19T04:17:14;94993.22;;;7.90;64.87
12785;BME280;6456;42.680;23.260;2023-02-19T04:19:47;94981.59;;;7.78;64.70
12785;BME280;6456;42.680;23.260;2023-02-19T04:22:16;94985.66;;;7.81;64.77
12785;BME280;6456;42.680;23.260;2023-02-19T04:24:46;95003.22;;;7.87;64.81
12785;BME280;6456;42.680;23.260;2023-02-19T04:27:14;94993.81;;;7.92;64.71
12785;BME280;6456;42.680;23.260;2023-02-19T04:29:41;94993.00;;;7.92;64.69
12785;BME280;6456;42.680;23.260;2023-02-19T04:32:09;94991.16;;;7.86;64.96
12785;BME280;6456;42.680;23.260;2023-02-19T04:34:36;94988.78;;;7.91;64.44
12785;BME280;6456;42.680;23.260;2023-02-19T04:37:04;94997.88;;;7.95;64.32
12785;BME280;6456;42.680;23.260;2023-02-19T04:39:31;95000.94;;;7.98;64.37
12785;BME280;6456;42.680;23.260;2023-02-19T04:41:59;94996.44;;;7.92;64.27
12785;BME280;6456;42.680;23.260;2023-02-19T04:44:25;95004.94;;;7.94;64.57
12785;BME280;6456;42.680;23.260;2023-02-19T04:46:52;95005.94;;;7.93;64.51
12785;BME280;6456;42.680;23.260;2023-02-19T04:49:19;95002.50;;;7.93;64.32
12785;BME280;6456;42.680;23.260;2023-02-19T04:51:46;95014.06;;;7.98;64.37
12785;BME280;6456;42.680;23.260;2023-02-19T04:54:15;95023.16;;;8.02;64.16
12785;BME280;6456;42.680;23.260;2023-02-19T04:56:42;95017.66;;;7.97;64.42
12785;BME280;6456;42.680;23.260;2023-02-19T04:59:09;95022.47;;;7.94;64.46
12785;BME280;6456;42.680;23.260;2023-02-19T05:01:36;95023.47;;;7.93;64.52
12785;BME280;6456;42.680;23.260;2023-02-19T05:04:03;95021.47;;;7.95;64.58
12785;BME280;6456;42.680;23.260;2023-02-19T05:06:30;95023.09;;;7.96;64.35
12785;BME280;6456;42.680;23.260;2023-02-19T05:08:57;95016.59;;;7.92;64.14
12785;BME280;6456;42.680;23.260;2023-02-19T05:11:25;95025.53;;;7.97;64.08
12785;BME280;6456;42.680;23.260;2023-02-19T05:13:53;95031.56;;;7.98;64.03
12785;BME280;6456;42.680;23.260;2023-02-19T05:16:20;95022.16;;;8.03;63.81
12785;BME280;6456;42.680;23.260;2023-02-19T05:18:47;94994.44;;;7.94;64.49
12785;BME280;6456;42.680;23.260;2023-02-19T05:21:14;95026.69;;;8.30;64.62
12785;BME280;6456;42.680;23.260;2023-02-19T05:23:41;95018.00;;;8.30;63.97
12785;BME280;6456;42.680;23.260;2023-02-19T05:26:11;95034.09;;;8.48;64.02
12785;BME280;6456;42.680;23.260;2023-02-19T05:28:39;95030.72;;;8.54;63.51
12785;BME280;6456;42.680;23.260;2023-02-19T05:31:07;95025.94;;;8.64;64.18
12785;BME280;6456;42.680;23.260;2023-02-19T05:33:34;95029.91;;;8.81;64.16
12785;BME280;6456;42.680;23.260;2023-02-19T05:36:04;95034.19;;;9.17;63.33
12785;BME280;6456;42.680;23.260;2023-02-19T05:38:32;95022.28;;;9.27;62.50
12785;BME280;6456;42.680;23.260;2023-02-19T05:41:06;95037.59;;;9.58;61.65
12785;BME280;6456;42.680;23.260;2023-02-19T05:43:33;95023.91;;;9.69;60.58
12785;BME280;6456;42.680;23.260;2023-02-19T05:46:01;95025.38;;;9.91;59.79
12785;BME280;6456;42.680;23.260;2023-02-19T05:48:28;95023.78;;;10.03;59.42
12785;BME280;6456;42.680;23.260;2023-02-19T05:51:00;95029.72;;;10.25;58.84
12785;BME280;6456;42.680;23.260;2023-02-19T05:53:27;95024.28;;;10.33;58.19
12785;BME280;6456;42.680;23.260;2023-02-19T05:55:54;95040.25;;;10.45;57.99
12785;BME280;6456;42.680;23.260;2023-02-19T05:58:21;95011.94;;;10.34;57.70
12785;BME280;6456;42.680;23.260;2023-02-19T06:00:48;95029.34;;;10.41;57.58
12785;BME280;6456;42.680;23.260;2023-02-19T06:03:16;95063.56;;;10.67;57.46
12785;BME280;6456;42.680;23.260;2023-02-19T06:05:43;95069.22;;;10.77;57.21
12785;BME280;6456;42.680;23.260;2023-02-19T06:08:12;95069.44;;;10.89;57.00
12785;BME280;6456;42.680;23.260;2023-02-19T06:10:39;95071.44;;;11.00;56.88
12785;BME280;6456;42.680;23.260;2023-02-19T06:13:06;95076.31;;;11.10;56.43
12785;BME280;6456;42.680;23.260;2023-02-19T06:15:33;95066.19;;;11.13;55.91
12785;BME280;6456;42.680;23.260;2023-02-19T06:18:00;95077.09;;;11.23;55.75
12785;BME280;6456;42.680;23.260;2023-02-19T06:20:29;95072.63;;;11.30;55.69
12785;BME280;6456;42.680;23.260;2023-02-19T06:22:57;95048.16;;;11.17;55.04
12785;BME280;6456;42.680;23.260;2023-02-19T06:25:24;95067.34;;;11.30;54.83
12785;BME280;6456;42.680;23.260;2023-02-19T06:27:50;95077.06;;;11.43;54.51
12785;BME280;6456;42.680;23.260;2023-02-19T06:30:17;95073.78;;;11.47;54.39
12785;BME280;6456;42.680;23.260;2023-02-19T06:32:44;95057.19;;;11.40;54.15
12785;BME280;6456;42.680;23.260;2023-02-19T06:35:11;95079.44;;;11.57;53.97
12785;BME280;6456;42.680;23.260;2023-02-19T06:37:39;95072.94;;;11.67;53.64
12785;BME280;6456;42.680;23.260;2023-02-19T06:40:07;95071.91;;;11.68;53.27
12785;BME280;6456;42.680;23.260;2023-02-19T06:42:34;95046.81;;;11.58;52.98
12785;BME280;6456;42.680;23.260;2023-02-19T06:45:01;95076.59;;;11.79;53.68
12785;BME280;6456;42.680;23.260;2023-02-19T06:47:31;95073.53;;;11.82;54.23
12785;BME280;6456;42.680;23.260;2023-02-19T06:49:59;95045.41;;;11.56;53.05
12785;BME280;6456;42.680;23.260;2023-02-19T06:52:26;95072.13;;;11.73;52.83
12785;BME280;6456;42.680;23.260;2023-02-19T06:54:54;94982.28;;;11.23;52.67
12785;BME280;6456;42.680;23.260;2023-02-19T06:57:21;95018.28;;;11.49;52.34
12785;BME280;6456;42.680;23.260;2023-02-19T06:59:48;95021.53;;;11.44;52.91
12785;BME280;6456;42.680;23.260;2023-02-19T07:02:15;95091.78;;;11.90;52.55
12785;BME280;6456;42.680;23.260;2023-02-19T07:04:42;95088.31;;;11.83;52.25
12785;BME280;6456;42.680;23.260;2023-02-19T07:07:09;95090.38;;;11.81;52.45
12785;BME280;6456;42.680;23.260;2023-02-19T07:09:37;95081.41;;;11.88;52.41
12785;BME280;6456;42.680;23.260;2023-02-19T07:12:06;95041.34;;;11.53;52.39
12785;BME280;6456;42.680;23.260;2023-02-19T07:14:33;95088.94;;;11.78;53.13
12785;BME280;6456;42.680;23.260;2023-02-19T07:17:00;95079.03;;;11.74;53.87
12785;BME280;6456;42.680;23.260;2023-02-19T07:19:26;95058.63;;;11.49;53.80
12785;BME280;6456;42.680;23.260;2023-02-19T07:21:53;95085.53;;;11.65;53.24
12785;BME280;6456;42.680;23.260;2023-02-19T07:24:20;95063.84;;;11.56;53.86
12785;BME280;6456;42.680;23.260;2023-02-19T07:26:47;95064.47;;;11.51;53.60
12785;BME280;6456;42.680;23.260;2023-02-19T07:29:15;95074.59;;;11.61;54.08
12785;BME280;6456;42.680;23.260;2023-02-19T07:31:42;95060.19;;;11.64;54.66
12785;BME280;6456;42.680;23.260;2023-02-19T07:34:09;95074.19;;;11.71;54.76
12785;BME280;6456;42.680;23.260;2023-02-19T07:36:36;95068.84;;;11.84;54.27
12785;BME280;6456;42.680;23.260;2023-02-19T07:39:03;95055.69;;;11.84;53.55
12785;BME280;6456;42.680;23.260;2023-02-19T07:41:30;95063.94;;;11.94;53.48
12785;BME280;6456;42.680;23.260;2023-02-19T07:43:57;95066.59;;;11.94;53.80
12785;BME280;6456;42.680;23.260;2023-02-19T07:46:25;95051.78;;;11.93;52.92
12785;BME280;6456;42.680;23.260;2023-02-19T07:48:52;95038.16;;;11.96;52.45
12785;BME280;6456;42.680;23.260;2023-02-19T07:51:19;95017.66;;;11.98;50.81
12785;BME280;6456;42.680;23.260;2023-02-19T07:53:47;95061.06;;;12.40;50.63
12785;BME280;6456;42.680;23.260;2023-02-19T07:56:16;95050.28;;;12.41;49.66
12785;BME280;6456;42.680;23.260;2023-02-19T07:58:43;95056.50;;;12.53;49.90
12785;BME280;6456;42.680;23.260;2023-02-19T08:01:14;95064.97;;;12.62;50.28
12785;BME280;6456;42.680;23.260;2023-02-19T08:03:42;95014.34;;;12.40;49.76
12785;BME280;6456;42.680;23.260;2023-02-19T08:06:08;95010.44;;;12.49;49.26
12785;BME280;6456;42.680;23.260;2023-02-19T08:08:36;95050.63;;;12.82;48.28
12785;BME280;6456;42.680;23.260;2023-02-19T08:11:04;95065.31;;;12.97;48.67
12785;BME280;6456;42.680;23.260;2023-02-19T08:13:49;95065.84;;;13.05;49.02
12785;BME280;6456;42.680;23.260;2023-02-19T08:16:17;95063.38;;;13.10;47.99
12785;BME280;6456;42.680;23.260;2023-02-19T08:18:48;95028.50;;;13.02;48.33
12785;BME280;6456;42.680;23.260;2023-02-19T08:21:15;95066.97;;;13.22;47.70
12785;BME280;6456;42.680;23.260;2023-02-19T08:23:43;95054.75;;;13.21;47.43
12785;BME280;6456;42.680;23.260;2023-02-19T08:26:11;95064.25;;;13.29;48.24
12785;BME280;6456;42.680;23.260;2023-02-19T08:28:38;95062.13;;;13.37;48.59
12785;BME280;6456;42.680;23.260;2023-02-19T08:31:06;95064.69;;;13.44;48.18
12785;BME280;6456;42.680;23.260;2023-02-19T08:33:37;95005.06;;;13.12;47.93
12785;BME280;6456;42.680;23.260;2023-02-19T08:36:07;95054.44;;;13.54;48.10
12785;BME280;6456;42.680;23.260;2023-02-19T08:38:35;95051.34;;;13.57;48.04
12785;BME280;6456;42.680;23.260;2023-02-19T08:41:04;95034.25;;;13.60;47.03
12785;BME280;6456;42.680;23.260;2023-02-19T08:43:31;95043.41;;;13.75;47.25
12785;BME280;6456;42.680;23.260;2023-02-19T08:45:59;95042.53;;;13.81;46.42
12785;BME280;6456;42.680;23.260;2023-02-19T08:48:25;95064.97;;;13.90;47.08
12785;BME280;6456;42.680;23.260;2023-02-19T08:50:54;95044.16;;;13.82;48.30
12785;BME280;6456;42.680;23.260;2023-02-19T08:53:23;94984.28;;;13.52;48.35
12785;BME280;6456;42.680;23.260;2023-02-19T08:55:50;95043.38;;;13.93;48.34
12785;BME280;6456;42.680;23.260;2023-02-19T08:58:17;95032.94;;;13.98;48.01
12785;BME280;6456;42.680;23.260;2023-02-19T09:00:44;95039.84;;;13.99;48.24
12785;BME280;6456;42.680;23.260;2023-02-19T09:03:11;95002.16;;;13.86;48.25
12785;BME280;6456;42.680;23.260;2023-02-19T09:05:38;94917.69;;;13.43;48.59
12785;BME280;6456;42.680;23.260;2023-02-19T09:08:05;95005.38;;;14.06;48.50
12785;BME280;6456;42.680;23.260;2023-02-19T09:10:33;95020.84;;;14.21;49.19
12785;BME280;6456;42.680;23.260;2023-02-19T09:13:00;94984.47;;;13.86;50.09
12785;BME280;6456;42.680;23.260;2023-02-19T09:15:27;94970.50;;;13.97;51.06
12785;BME280;6456;42.680;23.260;2023-02-19T09:17:55;94978.22;;;14.10;49.05
12785;BME280;6456;42.680;23.260;2023-02-19T09:20:22;95010.53;;;14.31;50.22
12785;BME280;6456;42.680;23.260;2023-02-19T09:22:48;95009.53;;;14.32;50.31
12785;BME280;6456;42.680;23.260;2023-02-19T09:25:15;95010.47;;;14.37;51.05
12785;BME280;6456;42.680;23.260;2023-02-19T09:27:44;95001.13;;;14.35;50.96
12785;BME280;6456;42.680;23.260;2023-02-19T09:30:11;94988.47;;;14.37;47.79
12785;BME280;6456;42.680;23.260;2023-02-19T09:32:38;95008.19;;;14.52;47.35
12785;BME280;6456;42.680;23.260;2023-02-19T09:35:05;94993.56;;;14.50;48.61
12785;BME280;6456;42.680;23.260;2023-02-19T09:37:32;94998.44;;;14.64;49.15
12785;BME280;6456;42.680;23.260;2023-02-19T09:39:59;95015.00;;;14.60;49.47
12785;BME280;6456;42.680;23.260;2023-02-19T09:42:28;95003.03;;;14.57;50.80
12785;BME280;6456;42.680;23.260;2023-02-19T09:44:59;94944.16;;;14.32;47.79
12785;BME280;6456;42.680;23.260;2023-02-19T09:47:28;94955.19;;;14.41;46.74
12785;BME280;6456;42.680;23.260;2023-02-19T09:50:04;94919.41;;;14.38;46.31
12785;BME280;6456;42.680;23.260;2023-02-19T09:52:36;94985.88;;;14.83;45.51
12785;BME280;6456;42.680;23.260;2023-02-19T09:55:15;94921.28;;;14.61;44.21
12785;BME280;6456;42.680;23.260;2023-02-19T09:57:44;94916.78;;;14.61;44.14
12785;BME280;6456;42.680;23.260;2023-02-19T10:00:21;94884.75;;;14.63;43.30
12785;BME280;6456;42.680;23.260;2023-02-19T10:02:51;94942.94;;;15.04;44.18
12785;BME280;6456;42.680;23.260;2023-02-19T10:05:19;94948.31;;;15.21;44.84
12785;BME280;6456;42.680;23.260;2023-02-19T10:07:48;94906.75;;;14.98;43.70
12785;BME280;6456;42.680;23.260;2023-02-19T10:10:22;94923.56;;;15.15;43.09
12785;BME280;6456;42.680;23.260;2023-02-19T10:12:51;94937.94;;;15.19;43.68
12785;BME280;6456;42.680;23.260;2023-02-19T10:15:24;94937.94;;;15.19;43.54
12785;BME280;6456;42.680;23.260;2023-02-19T10:17:53;94917.56;;;15.08;43.42
12785;BME280;6456;42.680;23.260;2023-02-19T10:20:21;94919.06;;;15.04;44.41
12785;BME280;6456;42.680;23.260;2023-02-19T10:22:57;94917.88;;;15.23;42.97
12785;BME280;6456;42.680;23.260;2023-02-19T10:25:24;94911.66;;;15.29;43.06
12785;BME280;6456;42.680;23.260;2023-02-19T10:27:51;94848.94;;;14.95;42.66
12785;BME280;6456;42.680;23.260;2023-02-19T10:30:22;94915.78;;;15.37;43.17
12785;BME280;6456;42.680;23.260;2023-02-19T10:33:01;94912.56;;;15.35;43.05
12785;BME280;6456;42.680;23.260;2023-02-19T10:35:29;94898.97;;;15.31;43.53
12785;BME280;6456;42.680;23.260;2023-02-19T10:37:57;94884.91;;;15.31;43.31
12785;BME280;6456;42.680;23.260;2023-02-19T10:40:26;94877.19;;;15.29;43.92
12785;BME280;6456;42.680;23.260;2023-02-19T10:42:55;94829.75;;;15.16;42.78
12785;BME280;6456;42.680;23.260;2023-02-19T10:45:32;94871.25;;;15.51;42.50
12785;BME280;6456;42.680;23.260;2023-02-19T10:48:06;94864.00;;;15.46;42.15
12785;BME280;6456;42.680;23.260;2023-02-19T10:50:50;94792.97;;;15.20;41.81
12785;BME280;6456;42.680;23.260;2023-02-19T10:53:23;94848.06;;;15.58;41.14
12785;BME280;6456;42.680;23.260;2023-02-19T10:56:06;94849.09;;;15.85;40.96
12785;BME280;6456;42.680;23.260;2023-02-19T10:58:33;94846.53;;;15.90;39.49
12785;BME280;6456;42.680;23.260;2023-02-19T11:01:25;94825.75;;;15.87;39.91
12785;BME280;6456;42.680;23.260;2023-02-19T11:04:13;94831.41;;;16.07;39.59
12785;BME280;6456;42.680;23.260;2023-02-19T11:06:40;94821.50;;;16.19;39.52
12785;BME280;6456;42.680;23.260;2023-02-19T11:09:23;94813.25;;;16.16;39.13
12785;BME280;6456;42.680;23.260;2023-02-19T11:11:53;94820.09;;;16.28;39.54
12785;BME280;6456;42.680;23.260;2023-02-19T11:14:22;94803.25;;;16.23;39.83
12785;BME280;6456;42.680;23.260;2023-02-19T11:16:52;94789.25;;;16.27;39.10
12785;BME280;6456;42.680;23.260;2023-02-19T11:19:27;94804.66;;;16.47;39.30
12785;BME280;6456;42.680;23.260;2023-02-19T11:21:54;94801.63;;;16.55;38.43
12785;BME280;6456;42.680;23.260;2023-02-19T11:24:27;94721.56;;;16.08;38.16
12785;BME280;6456;42.680;23.260;2023-02-19T11:26:55;94779.22;;;16.51;38.05
12785;BME280;6456;42.680;23.260;2023-02-19T11:29:24;94701.50;;;16.17;38.35
12785;BME280;6456;42.680;23.260;2023-02-19T11:34:45;94707.16;;;16.42;38.19
12785;BME280;6456;42.680;23.260;2023-02-19T11:37:14;94706.59;;;16.40;38.29
12785;BME280;6456;42.680;23.260;2023-02-19T11:39:43;94692.88;;;16.48;37.58
12785;BME280;6456;42.680;23.260;2023-02-19T11:42:23;94737.72;;;16.83;37.10
12785;BME280;6456;42.680;23.260;2023-02-19T11:45:01;94735.84;;;16.84;36.60
12785;BME280;6456;42.680;23.260;2023-02-19T11:47:49;94751.03;;;17.10;36.47
12785;BME280;6456;42.680;23.260;2023-02-19T11:50:24;94679.84;;;16.68;35.37
12785;BME280;6456;42.680;23.260;2023-02-19T11:53:03;94719.72;;;16.90;36.13
12785;BME280;6456;42.680;23.260;2023-02-19T11:55:47;94737.19;;;17.08;35.56
12785;BME280;6456;42.680;23.260;2023-02-19T11:58:39;94735.94;;;17.15;34.58
12785;BME280;6456;42.680;23.260;2023-02-19T12:01:16;94747.34;;;17.11;35.48
12785;BME280;6456;42.680;23.260;2023-02-19T12:04:06;94678.38;;;16.78;34.59
12785;BME280;6456;42.680;23.260;2023-02-19T12:06:45;94707.28;;;16.96;35.74
12785;BME280;6456;42.680;23.260;2023-02-19T12:09:25;94705.56;;;17.11;34.91
12785;BME280;6456;42.680;23.260;2023-02-19T12:12:16;94679.53;;;17.08;35.04
12785;BME280;6456;42.680;23.260;2023-02-19T12:15:05;94624.31;;;16.94;34.25
12785;BME280;6456;42.680;23.260;2023-02-19T12:17:56;94703.25;;;17.47;34.10
12785;BME280;6456;42.680;23.260;2023-02-19T12:20:34;94650.00;;;17.10;33.28
12785;BME280;6456;42.680;23.260;2023-02-19T12:23:33;94682.19;;;17.40;33.43
12785;BME280;6456;42.680;23.260;2023-02-19T12:26:10;94660.88;;;17.35;33.13
12785;BME280;6456;42.680;23.260;2023-02-19T12:29:04;94625.72;;;17.28;32.53
12785;BME280;6456;42.680;23.260;2023-02-19T12:37:59;94589.25;;;17.28;33.08
12785;BME280;6456;42.680;23.260;2023-02-19T12:40:37;94569.00;;;17.17;33.43
12785;BME280;6456;42.680;23.260;2023-02-19T12:43:12;94657.28;;;17.83;32.80
12785;BME280;6456;42.680;23.260;2023-02-19T12:45:44;94582.13;;;17.34;32.87
12785;BME280;6456;42.680;23.260;2023-02-19T12:48:19;94597.66;;;17.47;32.96
12785;BME280;6456;42.680;23.260;2023-02-19T12:50:54;94634.19;;;17.88;32.68
12785;BME280;6456;42.680;23.260;2023-02-19T12:53:39;94628.34;;;17.97;32.50
12785;BME280;6456;42.680;23.260;2023-02-19T12:56:13;94611.84;;;17.94;32.49
12785;BME280;6456;42.680;23.260;2023-02-19T12:58:44;94619.88;;;18.05;32.41
12785;BME280;6456;42.680;23.260;2023-02-19T13:01:15;94611.91;;;18.10;32.66
12785;BME280;6456;42.680;23.260;2023-02-19T13:03:47;94616.72;;;18.13;32.17
12785;BME280;6456;42.680;23.260;2023-02-19T13:06:25;94558.00;;;17.82;32.11
12785;BME280;6456;42.680;23.260;2023-02-19T13:09:06;94598.34;;;18.16;31.83
12785;BME280;6456;42.680;23.260;2023-02-19T13:11:43;94570.59;;;17.97;31.88
12785;BME280;6456;42.680;23.260;2023-02-19T13:14:20;94504.91;;;17.56;31.67
12785;BME280;6456;42.680;23.260;2023-02-19T13:16:54;94591.69;;;18.14;31.93
12785;BME280;6456;42.680;23.260;2023-02-19T13:19:23;94562.94;;;18.11;31.75
12785;BME280;6456;42.680;23.260;2023-02-19T13:21:55;94570.41;;;18.19;31.71
12785;BME280;6456;42.680;23.260;2023-02-19T13:24:44;94583.25;;;18.37;31.58
12785;BME280;6456;42.680;23.260;2023-02-19T13:27:42;94569.94;;;18.37;31.85
12785;BME280;6456;42.680;23.260;2023-02-19T13:30:32;94542.22;;;18.23;31.59
12785;BME280;6456;42.680;23.260;2023-02-19T13:33:11;94556.13;;;18.40;31.72
12785;BME280;6456;42.680;23.260;2023-02-19T13:36:05;94558.56;;;18.46;30.94
12785;BME280;6456;42.680;23.260;2023-02-19T13:38:40;94544.41;;;18.41;31.28